Time;durP1;ratioP1;P1;durP2;ratioP2;P2;SDS_P1;SDS_P2;PMS_P1;PMS_P2;Temp;Humidity;BMP_temperature;BMP_pressure;BME280_temperature;BME280_humidity;BME280_pressure;Samples;Min_cycle;Max_cycle;Signal;HPM_P1;HPM_P2
2023/07/18 00:00:17;;;;;;;6.00;1.20;;;;;;;15.03;100.00;99322.09;5025459;28;20428;-53
2023/07/18 00:02:45;;;;;;;4.50;1.70;;;;;;;14.94;100.00;99326.97;5044046;28;20033;-54
2023/07/18 00:05:12;;;;;;;2.00;1.17;;;;;;;14.90;100.00;99332.00;5034701;28;20087;-53
2023/07/18 00:07:44;;;;;;;4.30;1.30;;;;;;;14.89;100.00;99337.69;5031972;28;20484;-53
2023/07/18 00:10:11;;;;;;;3.58;1.02;;;;;;;14.85;100.00;99331.00;5060501;22;20139;-64
2023/07/18 00:12:38;;;;;;;3.53;1.50;;;;;;;14.86;100.00;99335.41;5076583;28;20031;-61
2023/07/18 00:15:05;;;;;;;7.05;1.65;;;;;;;14.79;100.00;99334.59;5073468;28;20055;-61
2023/07/18 00:17:32;;;;;;;3.38;1.35;;;;;;;14.73;100.00;99332.75;5060361;28;20035;-62
2023/07/18 00:19:59;;;;;;;4.88;1.50;;;;;;;14.67;100.00;99332.56;5071647;28;20166;-62
2023/07/18 00:22:24;;;;;;;7.03;1.25;;;;;;;14.59;100.00;99334.69;5076898;28;20139;-61
2023/07/18 00:24:50;;;;;;;4.85;1.30;;;;;;;14.50;100.00;99327.81;5063083;28;20115;-61
2023/07/18 00:27:16;;;;;;;4.45;1.10;;;;;;;14.53;100.00;99328.22;5045886;28;20032;-61
2023/07/18 00:29:42;;;;;;;3.50;1.30;;;;;;;14.41;100.00;99329.94;5061638;28;20028;-61
2023/07/18 00:32:07;;;;;;;4.20;1.65;;;;;;;14.40;100.00;99330.97;5057151;28;20029;-61
2023/07/18 00:34:33;;;;;;;2.92;1.10;;;;;;;14.39;100.00;99329.31;5062557;28;20028;-61
2023/07/18 00:36:58;;;;;;;3.55;1.55;;;;;;;14.32;100.00;99323.06;5058199;28;20024;-60
2023/07/18 00:39:23;;;;;;;4.55;1.27;;;;;;;14.34;100.00;99340.84;5051814;28;20032;-61
2023/07/18 00:41:49;;;;;;;3.03;1.30;;;;;;;14.43;100.00;99334.09;5056313;28;20028;-61
2023/07/18 00:44:14;;;;;;;3.03;1.30;;;;;;;14.35;100.00;99331.63;5060238;28;20033;-61
2023/07/18 00:46:40;;;;;;;4.30;1.65;;;;;;;14.21;100.00;99321.84;5068131;28;20066;-61
2023/07/18 00:49:07;;;;;;;3.78;1.30;;;;;;;14.14;100.00;99326.44;5056165;28;20020;-60
2023/07/18 00:51:32;;;;;;;4.40;1.20;;;;;;;14.08;100.00;99327.31;5065562;28;20020;-60
2023/07/18 00:53:58;;;;;;;4.47;1.63;;;;;;;14.07;100.00;99325.63;5057035;28;20021;-60
2023/07/18 00:56:24;;;;;;;1.90;1.10;;;;;;;14.01;100.00;99330.88;5056304;28;20048;-60
2023/07/18 00:58:49;;;;;;;2.45;1.30;;;;;;;13.99;100.00;99323.97;5051396;28;20059;-61
2023/07/18 01:01:15;;;;;;;3.63;1.10;;;;;;;13.99;100.00;99326.69;5064631;28;20128;-61
2023/07/18 01:03:41;;;;;;;5.07;1.30;;;;;;;13.97;100.00;99326.09;5054657;28;20158;-61
2023/07/18 01:06:06;;;;;;;4.57;1.40;;;;;;;13.94;100.00;99330.06;5062538;28;20020;-61
2023/07/18 01:08:32;;;;;;;4.68;1.38;;;;;;;13.93;100.00;99336.53;5056618;28;20029;-61
2023/07/18 01:10:57;;;;;;;2.13;1.10;;;;;;;13.92;100.00;99336.78;5056006;28;20030;-61
2023/07/18 01:13:23;;;;;;;3.30;1.10;;;;;;;13.81;100.00;99333.66;5072121;28;20490;-61
2023/07/18 01:15:48;;;;;;;4.88;1.10;;;;;;;13.84;100.00;99334.28;5054993;28;20017;-61
2023/07/18 01:18:13;;;;;;;2.90;1.30;;;;;;;13.80;100.00;99326.50;5064389;28;20026;-61
2023/07/18 01:20:40;;;;;;;4.45;1.02;;;;;;;13.80;100.00;99326.50;5053907;28;20167;-61
2023/07/18 02:37:04;;;;;;;2.80;1.40;;;;;;;13.01;100.00;99312.91;5074294;28;20071;-61
2023/07/18 02:39:32;;;;;;;4.22;1.50;;;;;;;12.98;100.00;99310.59;5054078;28;20119;-61
2023/07/18 02:41:58;;;;;;;4.13;1.27;;;;;;;12.98;100.00;99318.75;5057037;28;20032;-65
2023/07/18 02:44:23;;;;;;;3.15;1.15;;;;;;;12.85;100.00;99309.53;5056528;28;20121;-65
2023/07/18 02:46:49;;;;;;;4.93;1.38;;;;;;;12.81;100.00;99308.28;5051192;28;20785;-65
2023/07/18 02:49:14;;;;;;;4.35;1.17;;;;;;;12.70;100.00;99317.84;5066351;28;20037;-65
2023/07/18 02:51:39;;;;;;;3.35;1.35;;;;;;;12.72;100.00;99318.47;5044442;28;20020;-65
2023/07/18 02:54:05;;;;;;;4.03;1.20;;;;;;;12.80;100.00;99322.06;5055125;28;20021;-65
2023/07/18 02:56:32;;;;;;;3.88;1.20;;;;;;;12.75;100.00;99321.81;5060652;28;20043;-65
2023/07/18 02:58:57;;;;;;;2.40;1.30;;;;;;;12.71;100.00;99326.84;5046427;28;20070;-65
2023/07/18 03:01:22;;;;;;;3.92;1.40;;;;;;;12.55;100.00;99335.31;5063608;28;20380;-65
2023/07/18 03:03:48;;;;;;;6.03;1.20;;;;;;;12.37;100.00;99333.19;5050525;28;20484;-65
2023/07/18 03:06:14;;;;;;;3.95;1.27;;;;;;;12.30;100.00;99338.56;5068299;28;20028;-65
2023/07/18 03:08:40;;;;;;;2.50;1.50;;;;;;;12.24;100.00;99336.66;5050195;28;20029;-65
2023/07/18 03:11:05;;;;;;;4.82;1.88;;;;;;;12.36;100.00;99332.31;5052505;28;20035;-69
2023/07/18 03:13:31;;;;;;;5.93;1.73;;;;;;;12.44;100.00;99337.59;5058604;28;20021;-66
2023/07/18 03:15:57;;;;;;;5.38;1.60;;;;;;;12.37;100.00;99335.91;5061606;28;20424;-65
2023/07/18 03:18:22;;;;;;;3.63;1.50;;;;;;;12.30;100.00;99335.84;5056065;28;20043;-65
2023/07/18 03:20:48;;;;;;;5.68;1.40;;;;;;;12.30;100.00;99338.56;5057417;28;20033;-65
2023/07/18 03:23:14;;;;;;;7.75;1.25;;;;;;;12.23;100.00;99333.09;5052262;28;20029;-65
2023/07/18 03:25:39;;;;;;;3.28;1.17;;;;;;;12.16;100.00;99336.84;5053102;28;20028;-65
2023/07/18 03:28:04;;;;;;;2.13;1.30;;;;;;;12.17;100.00;99341.22;5044955;28;20392;-65
2023/07/18 03:30:30;;;;;;;9.60;1.42;;;;;;;12.18;100.00;99334.75;5059678;28;20055;-65
2023/07/18 03:32:56;;;;;;;3.67;1.50;;;;;;;12.17;100.00;99333.06;5063939;28;20059;-65
2023/07/18 03:35:21;;;;;;;4.05;1.50;;;;;;;12.33;100.00;99326.47;5076752;28;20078;-65
2023/07/18 03:37:47;;;;;;;6.03;1.30;;;;;;;12.32;100.00;99331.06;5054158;28;20016;-65
2023/07/18 03:40:15;;;;;;;3.97;1.13;;;;;;;12.30;100.00;99327.72;5052185;28;20069;-65
2023/07/18 03:42:42;;;;;;;3.35;1.10;;;;;;;12.30;100.00;99321.47;5051788;28;20482;-66
2023/07/18 03:45:10;;;;;;;5.88;2.00;;;;;;;12.34;100.00;99318.16;5059103;28;20073;-66
2023/07/18 03:47:37;;;;;;;4.78;1.75;;;;;;;12.30;100.00;99329.59;5067242;28;20507;-66
2023/07/18 03:50:03;;;;;;;3.92;1.50;;;;;;;12.24;100.00;99323.09;5056957;28;20132;-66
2023/07/18 03:52:28;;;;;;;5.05;1.30;;;;;;;12.30;100.00;99324.16;5062794;28;20095;-66
2023/07/18 03:54:54;;;;;;;2.03;1.10;;;;;;;12.36;100.00;99316.03;5054310;28;20033;-65
2023/07/18 03:57:19;;;;;;;4.85;1.33;;;;;;;12.38;100.00;99313.97;5062066;28;20027;-69
2023/07/18 03:59:44;;;;;;;9.15;1.90;;;;;;;12.38;100.00;99315.84;5041746;28;20028;-65
2023/07/18 04:02:12;;;;;;;23.95;2.95;;;;;;;12.27;100.00;99317.28;5061000;28;20064;-64
2023/07/18 04:04:38;;;;;;;22.38;1.90;;;;;;;12.29;100.00;99317.91;5053648;28;20468;-64
2023/07/18 04:07:04;;;;;;;11.75;1.63;;;;;;;12.54;100.00;99322.81;5063225;28;20031;-65
2023/07/18 04:09:30;;;;;;;8.57;1.48;;;;;;;12.62;100.00;99303.63;5068168;28;20033;-65
2023/07/18 04:11:56;;;;;;;3.83;1.80;;;;;;;12.63;100.00;99297.16;5060425;28;20086;-65
2023/07/18 04:14:22;;;;;;;3.28;1.13;;;;;;;12.71;100.00;99297.81;5060281;28;20419;-64
2023/07/18 04:16:47;;;;;;;3.65;1.00;;;;;;;12.74;100.00;99290.31;5048992;28;20027;-65
2023/07/18 04:19:13;;;;;;;5.15;1.30;;;;;;;12.79;100.00;99288.63;5050611;28;20032;-63
2023/07/18 04:21:40;;;;;;;6.07;1.15;;;;;;;12.79;100.00;99294.06;5057441;28;20032;-64
2023/07/18 04:24:08;;;;;;;6.90;1.48;;;;;;;12.86;100.00;99294.94;5058431;28;20088;-64
2023/07/18 04:26:33;;;;;;;8.45;1.60;;;;;;;12.90;100.00;99295.34;5063706;28;20139;-65
2023/07/18 04:28:59;;;;;;;5.65;1.25;;;;;;;12.93;100.00;99284.88;5066467;28;20120;-64
2023/07/18 04:31:25;;;;;;;5.35;1.33;;;;;;;13.05;100.00;99285.13;5072130;28;20051;-64
2023/07/18 04:33:50;;;;;;;7.63;1.48;;;;;;;13.15;100.00;99284.69;5065697;28;20024;-66
2023/07/18 04:36:16;;;;;;;5.20;1.52;;;;;;;13.18;100.00;99288.88;5063402;28;20031;-65
2023/07/18 04:38:41;;;;;;;7.57;1.75;;;;;;;13.34;100.00;99280.34;5076561;28;20023;-65
2023/07/18 04:41:07;;;;;;;3.58;1.52;;;;;;;13.38;100.00;99287.88;5072577;28;20043;-65
2023/07/18 04:43:32;;;;;;;14.07;1.90;;;;;;;13.53;100.00;99289.53;5062801;28;20189;-64
2023/07/18 04:45:58;;;;;;;8.43;1.48;;;;;;;13.59;100.00;99289.53;5054261;28;20028;-64
2023/07/18 04:48:23;;;;;;;5.30;1.88;;;;;;;13.54;100.00;99280.31;5053520;28;20068;-64
2023/07/18 04:50:55;;;;;;;5.47;1.92;;;;;;;13.41;100.00;99286.59;5055121;28;20032;-64
2023/07/18 04:53:21;;;;;;;3.40;1.98;;;;;;;13.42;100.00;99288.31;5075030;28;20451;-64
2023/07/18 04:55:50;;;;;;;6.05;2.00;;;;;;;13.48;100.00;99286.63;5056489;28;20025;-64
2023/07/18 04:58:17;;;;;;;6.40;1.80;;;;;;;13.55;100.00;99292.91;5057442;28;20021;-64
2023/07/18 05:00:42;;;;;;;6.30;1.70;;;;;;;13.69;100.00;99289.09;5057007;28;20040;-64
2023/07/18 05:03:08;;;;;;;5.38;1.88;;;;;;;13.84;100.00;99290.75;5053982;28;20031;-64
2023/07/18 05:05:33;;;;;;;5.55;1.63;;;;;;;13.89;100.00;99283.63;5055195;28;20031;-64
2023/07/18 05:07:59;;;;;;;5.53;1.45;;;;;;;13.98;100.00;99274.16;5056392;28;20020;-64
2023/07/18 05:10:25;;;;;;;2.75;1.30;;;;;;;14.13;100.00;99273.09;5053996;28;20119;-63
2023/07/18 05:12:52;;;;;;;2.63;1.38;;;;;;;14.28;100.00;99280.97;5076561;28;20162;-63
2023/07/18 05:15:19;;;;;;;2.60;1.50;;;;;;;14.41;100.00;99275.50;5072144;28;20029;-64
2023/07/18 05:17:45;;;;;;;6.95;1.95;;;;;;;14.54;100.00;99274.59;5059441;28;20080;-64
2023/07/18 05:20:11;;;;;;;5.30;1.40;;;;;;;14.74;100.00;99274.50;5063183;28;20024;-64
2023/07/18 05:22:40;;;;;;;6.07;1.90;;;;;;;14.82;100.00;99271.50;5064893;28;20369;-64
2023/07/18 05:25:08;;;;;;;6.50;1.60;;;;;;;14.90;100.00;99271.25;5063211;28;20163;-64
2023/07/18 05:27:34;;;;;;;6.00;1.60;;;;;;;14.89;100.00;99261.41;5065185;28;20016;-64
2023/07/18 05:30:00;;;;;;;6.78;1.40;;;;;;;15.23;100.00;99262.84;5062547;28;20032;-64
2023/07/18 05:32:26;;;;;;;6.22;1.33;;;;;;;15.51;100.00;99258.78;5058874;28;20142;-64
2023/07/18 05:34:51;;;;;;;3.90;1.40;;;;;;;15.75;100.00;99252.53;5054409;28;20499;-65
2023/07/18 05:37:16;;;;;;;6.47;1.55;;;;;;;16.00;100.00;99257.91;5077111;28;20028;-64
2023/07/18 05:39:42;;;;;;;3.95;1.40;;;;;;;16.26;100.00;99255.09;5064573;28;20036;-65
2023/07/18 05:42:07;;;;;;;4.07;1.55;;;;;;;16.41;100.00;99253.63;5068393;28;20036;-64
2023/07/18 05:44:33;;;;;;;7.22;1.45;;;;;;;16.56;100.00;99249.66;5057058;28;20036;-63
2023/07/18 05:46:58;;;;;;;3.28;1.40;;;;;;;16.79;100.00;99244.31;5060647;28;20039;-65
2023/07/18 05:49:24;;;;;;;3.20;1.33;;;;;;;17.04;100.00;99240.56;5053256;28;20016;-64
2023/07/18 05:51:50;;;;;;;16.50;2.00;;;;;;;17.44;100.00;99248.91;5053499;28;20025;-62
2023/07/18 05:54:15;;;;;;;9.38;1.20;;;;;;;17.53;100.00;99239.31;5052331;28;20024;-62
2023/07/18 05:56:41;;;;;;;7.28;1.20;;;;;;;17.89;100.00;99242.88;5058888;28;20484;-62
2023/07/18 05:59:07;;;;;;;4.63;1.45;;;;;;;18.23;100.00;99228.50;5077976;28;20116;-62
2023/07/18 06:01:36;;;;;;;3.67;1.15;;;;;;;18.57;100.00;99230.28;5067029;28;20031;-63
2023/07/18 06:04:01;;;;;;;7.60;1.50;;;;;;;18.69;100.00;99219.25;5068918;28;20029;-63
2023/07/18 06:06:27;;;;;;;5.30;1.30;;;;;;;18.99;100.00;99219.03;5055362;28;20119;-63
2023/07/18 06:08:52;;;;;;;8.52;1.45;;;;;;;19.37;100.00;99211.94;5056093;28;20113;-63
2023/07/18 06:11:18;;;;;;;4.03;1.95;;;;;;;19.66;100.00;99206.31;5077924;22;20136;-80
2023/07/18 06:13:44;;;;;;;4.30;1.30;;;;;;;19.98;100.00;99197.44;5037477;28;20029;-79
2023/07/18 06:16:10;;;;;;;8.35;1.67;;;;;;;20.03;100.00;99172.78;5046296;28;20125;-80
2023/07/18 06:18:35;;;;;;;6.60;1.38;;;;;;;20.47;100.00;99195.56;5044833;28;20101;-78
2023/07/18 06:21:02;;;;;;;10.50;1.48;;;;;;;20.73;100.00;99199.41;5032472;28;20124;-81
2023/07/18 06:23:29;;;;;;;13.30;2.10;;;;;;;21.16;100.00;99203.09;5046772;28;20026;-79
2023/07/18 06:25:54;;;;;;;6.82;1.50;;;;;;;21.39;100.00;99203.84;5033581;28;20036;-81
2023/07/18 06:28:19;;;;;;;9.30;1.83;;;;;;;21.45;100.00;99184.34;5034475;28;20037;-79
2023/07/18 06:30:45;;;;;;;13.70;1.60;;;;;;;21.91;100.00;99191.22;5038530;28;20029;-81
2023/07/18 06:33:10;;;;;;;7.40;1.27;;;;;;;22.03;100.00;99167.88;5060922;28;20029;-81
2023/07/18 06:35:37;;;;;;;3.30;1.10;;;;;;;22.72;100.00;99196.19;5027774;28;20052;-77
2023/07/18 06:38:02;;;;;;;4.18;1.70;;;;;;;22.39;100.00;99181.78;5048671;28;20031;-78
2023/07/18 06:40:27;;;;;;;4.38;1.25;;;;;;;22.91;100.00;99155.91;5041179;28;20400;-81
2023/07/18 06:42:53;;;;;;;6.38;1.63;;;;;;;23.76;100.00;99179.31;5017887;28;20546;-75
2023/07/18 06:45:18;;;;;;;6.75;1.30;;;;;;;24.73;100.00;99153.16;5019147;28;20031;-75
2023/07/18 06:47:43;;;;;;;6.97;1.40;;;;;;;26.32;84.05;99158.72;5048011;28;20020;-76
2023/07/18 06:50:09;;;;;;;5.97;1.40;;;;;;;29.23;64.99;99179.28;5046475;28;20506;-71
2023/07/18 06:52:35;;;;;;;3.72;1.25;;;;;;;30.91;53.12;99170.84;5031664;28;20018;-72
2023/07/18 06:55:00;;;;;;;5.93;1.83;;;;;;;32.08;48.18;99176.34;5042188;28;20025;-77
2023/07/18 06:57:25;;;;;;;3.60;1.48;;;;;;;33.87;46.70;99174.63;5028570;28;20033;-76
2023/07/18 06:59:51;;;;;;;6.03;1.50;;;;;;;33.73;42.27;99155.31;5051597;28;20087;-80
2023/07/18 07:02:16;;;;;;;2.40;1.33;;;;;;;34.62;40.46;99146.16;5042840;28;20029;-80
2023/07/18 07:04:41;;;;;;;3.40;1.38;;;;;;;35.54;37.70;99164.03;5040781;28;20039;-80
2023/07/18 07:07:07;;;;;;;4.88;1.38;;;;;;;35.68;37.10;99157.16;5050062;28;20025;-80
2023/07/18 07:09:33;;;;;;;7.03;1.63;;;;;;;35.19;36.54;99143.38;5049811;28;20044;-79
2023/07/18 07:11:59;;;;;;;4.22;1.50;;;;;;;35.66;36.50;99166.00;5043347;28;20033;-79
2023/07/18 07:14:24;;;;;;;6.72;1.70;;;;;;;36.34;35.67;99149.94;5047399;28;20026;-80
2023/07/18 07:16:50;;;;;;;2.03;1.13;;;;;;;36.23;35.01;99146.06;5031102;28;20524;-76
2023/07/18 07:19:15;;;;;;;2.05;1.10;;;;;;;37.00;34.24;99143.34;5025707;28;20536;-75
2023/07/18 07:21:40;;;;;;;3.83;1.40;;;;;;;35.99;34.55;99133.81;5029802;28;20028;-75
2023/07/18 07:24:06;;;;;;;2.65;1.10;;;;;;;37.58;32.67;99139.66;5026213;28;20499;-71
2023/07/18 07:26:31;;;;;;;5.65;1.50;;;;;;;37.33;32.81;99132.69;5026353;28;20040;-71
2023/07/18 07:28:57;;;;;;;2.60;1.10;;;;;;;37.15;32.52;99130.34;5031243;28;20029;-72
2023/07/18 07:31:22;;;;;;;3.42;1.13;;;;;;;36.70;32.98;99112.09;5032743;28;20475;-71
2023/07/18 07:33:49;;;;;;;6.90;1.45;;;;;;;38.33;32.22;99123.09;5026747;28;20054;-71
2023/07/18 07:36:15;;;;;;;2.35;1.02;;;;;;;37.29;32.45;99122.16;5028431;28;20030;-71
2023/07/18 07:38:41;;;;;;;2.78;1.10;;;;;;;37.97;32.11;99133.88;5022538;28;20028;-72
2023/07/18 07:41:06;;;;;;;4.85;1.30;;;;;;;38.75;30.72;99127.72;5035422;28;20061;-71
2023/07/18 07:43:32;;;;;;;4.18;1.20;;;;;;;38.77;30.58;99125.31;5031610;28;20036;-72
2023/07/18 07:45:58;;;;;;;4.13;1.30;;;;;;;38.96;30.66;99130.84;5045996;28;20542;-72
2023/07/18 07:48:24;;;;;;;4.32;1.40;;;;;;;38.97;30.83;99118.31;5031461;28;20049;-71
2023/07/18 07:50:49;;;;;;;2.38;1.30;;;;;;;39.13;29.85;99109.59;5031834;28;20096;-72
2023/07/18 07:53:14;;;;;;;3.85;1.50;;;;;;;37.53;30.96;99114.56;5031685;28;20613;-72
2023/07/18 07:55:40;;;;;;;3.20;1.40;;;;;;;38.77;30.42;99102.69;5022025;28;20530;-72
2023/07/18 07:58:05;;;;;;;4.28;1.35;;;;;;;38.91;30.42;99102.91;5033189;28;20071;-72
2023/07/18 08:00:30;;;;;;;7.03;1.10;;;;;;;38.61;30.40;99104.91;5048649;28;20140;-72
2023/07/18 08:02:56;;;;;;;3.23;1.40;;;;;;;39.55;30.93;99096.28;5034018;28;20703;-72
2023/07/18 08:05:21;;;;;;;6.13;1.17;;;;;;;40.90;28.50;99089.84;5034212;28;20333;-72
2023/07/18 08:07:48;;;;;;;3.67;1.20;;;;;;;41.64;27.95;99090.44;5035440;28;20148;-72
2023/07/18 08:10:13;;;;;;;2.90;1.23;;;;;;;41.42;28.34;99089.56;5036984;28;20037;-72
2023/07/18 08:12:39;;;;;;;6.07;1.27;;;;;;;42.14;26.97;99081.84;5035603;28;20052;-72
2023/07/18 08:15:06;;;;;;;4.75;1.20;;;;;;;42.70;26.62;99082.88;5034955;28;20117;-72
2023/07/18 08:17:31;;;;;;;3.13;1.17;;;;;;;43.46;26.77;99061.28;5035971;28;20028;-73
2023/07/18 08:19:56;;;;;;;5.00;1.20;;;;;;;41.86;26.65;99072.13;5050903;28;20021;-72
2023/07/18 08:22:22;;;;;;;5.40;1.53;;;;;;;42.30;26.85;99067.19;5035856;28;20387;-72
2023/07/18 08:24:47;;;;;;;2.95;0.90;;;;;;;43.51;25.25;99060.03;5034851;28;20414;-72
2023/07/18 08:27:12;;;;;;;3.83;1.40;;;;;;;41.87;26.08;99062.41;5033977;28;20053;-72
2023/07/18 08:29:38;;;;;;;4.03;1.02;;;;;;;42.12;26.83;99055.88;5034775;28;20029;-72
2023/07/18 08:32:03;;;;;;;3.10;1.10;;;;;;;41.70;26.45;99058.34;5034811;28;20108;-73
2023/07/18 08:34:29;;;;;;;3.03;1.20;;;;;;;42.80;25.35;99062.13;5033738;28;20060;-73
2023/07/18 08:36:54;;;;;;;5.33;1.00;;;;;;;42.37;25.71;99062.31;5034463;28;20409;-72
2023/07/18 08:39:19;;;;;;;3.88;1.20;;;;;;;42.54;26.29;99051.28;5050285;28;20272;-73
2023/07/18 08:41:46;;;;;;;1.85;1.00;;;;;;;43.12;25.69;99053.38;5034362;28;20040;-72
2023/07/18 08:44:16;;;;;;;6.82;1.30;;;;;;;44.46;25.40;99050.16;5035086;28;20135;-72
2023/07/18 08:46:44;;;;;;;4.68;1.20;;;;;;;43.53;25.17;99035.59;5030321;28;20024;-72
2023/07/18 08:49:13;;;;;;;3.60;0.95;;;;;;;44.67;24.81;99034.78;5026195;28;20060;-73
2023/07/18 08:51:40;;;;;;;5.70;1.45;;;;;;;42.37;26.08;99035.88;5034748;28;20021;-73
2023/07/18 08:54:06;;;;;;;4.60;1.20;;;;;;;41.64;26.40;99030.78;5034665;28;20041;-73
2023/07/18 08:56:32;;;;;;;2.88;1.05;;;;;;;42.52;25.59;99034.59;5034682;28;20040;-73
2023/07/18 08:58:59;;;;;;;3.90;1.08;;;;;;;44.33;25.09;99024.19;5033614;28;20075;-73
2023/07/18 09:01:24;;;;;;;2.17;1.00;;;;;;;43.38;24.95;99028.41;5051318;28;20057;-73
2023/07/18 09:03:51;;;;;;;2.95;1.20;;;;;;;42.07;25.08;99019.31;5054357;28;20060;-73
2023/07/18 09:06:20;;;;;;;2.93;1.03;;;;;;;42.73;25.22;99025.13;5048500;28;20025;-73
2023/07/18 09:08:46;;;;;;;2.47;0.82;;;;;;;41.91;26.11;99025.44;5033832;28;20442;-73
2023/07/18 09:11:12;;;;;;;2.35;1.00;;;;;;;42.94;25.01;99009.19;5049559;28;20041;-73
2023/07/18 09:13:40;;;;;;;3.50;0.90;;;;;;;45.16;24.39;99010.44;5034525;28;20100;-73
2023/07/18 09:16:12;;;;;;;2.92;0.90;;;;;;;44.91;23.38;99004.28;5033282;28;20171;-73
2023/07/18 09:18:38;;;;;;;3.88;0.90;;;;;;;44.35;23.65;98994.00;5026639;28;20055;-73
2023/07/18 09:21:09;;;;;;;4.65;0.90;;;;;;;43.86;23.37;98996.22;5032970;28;20036;-73
2023/07/18 09:23:42;;;;;;;2.17;1.08;;;;;;;42.83;24.02;99010.06;5047060;28;20035;-73
2023/07/18 09:26:13;;;;;;;2.22;1.00;;;;;;;40.85;25.67;99002.25;5029732;28;20530;-73
2023/07/18 09:28:38;;;;;;;2.08;1.13;;;;;;;40.58;26.60;98998.94;5049612;28;20498;-73
2023/07/18 09:31:25;;;;;;;2.53;0.90;;;;;;;40.20;26.13;98995.56;5032176;28;20029;-78
2023/07/18 09:33:52;;;;;;;3.15;1.15;;;;;;;40.97;25.68;98999.84;5027910;28;20018;-74
2023/07/18 09:36:22;;;;;;;3.22;1.30;;;;;;;40.28;25.67;99000.88;5031326;28;20479;-76
2023/07/18 09:38:49;;;;;;;3.33;0.82;;;;;;;40.92;25.82;98999.44;5017047;28;20036;-75
2023/07/18 09:41:19;;;;;;;2.85;1.10;;;;;;;42.50;24.83;98991.56;5039447;28;20521;-75
2023/07/18 09:43:45;;;;;;;3.58;0.90;;;;;;;42.31;24.94;99003.38;5050289;28;20439;-74
2023/07/18 09:46:15;;;;;;;2.45;1.05;;;;;;;41.22;25.47;98981.28;5031656;28;20036;-74
2023/07/18 09:48:41;;;;;;;2.13;0.98;;;;;;;42.04;25.18;98986.84;5024023;28;20014;-76
2023/07/18 09:51:14;;;;;;;2.08;1.02;;;;;;;43.90;24.83;98979.88;5044804;28;20064;-72
2023/07/18 09:53:45;;;;;;;2.85;1.00;;;;;;;44.22;23.86;98978.69;5031310;28;20405;-75
2023/07/18 09:56:16;;;;;;;3.42;1.00;;;;;;;43.57;24.75;98977.75;5040851;28;20034;-74
2023/07/18 09:58:48;;;;;;;4.32;1.20;;;;;;;43.65;23.76;98991.56;5032403;28;20029;-74
2023/07/18 10:01:19;;;;;;;2.58;1.23;;;;;;;44.61;23.83;99001.00;5035875;28;20521;-75
2023/07/18 10:03:49;;;;;;;2.22;1.10;;;;;;;44.99;23.37;99014.34;5032479;28;20021;-74
2023/07/18 10:06:15;;;;;;;4.55;1.27;;;;;;;42.35;24.62;99024.94;5030164;28;20025;-74
2023/07/18 10:08:44;;;;;;;3.20;1.10;;;;;;;42.73;24.95;99033.69;5031977;28;20486;-74
2023/07/18 10:11:11;;;;;;;2.38;1.20;;;;;;;39.41;27.12;99012.03;5028977;28;21000;-74
2023/07/18 10:13:55;;;;;;;4.10;1.08;;;;;;;38.41;28.94;99034.38;5038232;28;20060;-74
2023/07/18 10:16:20;;;;;;;6.97;1.33;;;;;;;37.30;29.06;99046.78;5030352;28;20033;-74
2023/07/18 10:18:50;;;;;;;3.65;1.40;;;;;;;36.12;30.57;99038.78;5032356;28;20100;-74
2023/07/18 10:21:33;;;;;;;4.28;1.40;;;;;;;34.85;31.92;99019.94;5044210;28;20034;-74
2023/07/18 10:24:21;;;;;;;3.25;1.52;;;;;;;32.97;34.58;99034.06;5031042;28;20028;-74
2023/07/18 10:26:51;;;;;;;8.07;1.50;;;;;;;32.21;36.46;99012.88;5024563;28;20040;-74
2023/07/18 10:29:16;;;;;;;4.20;1.35;;;;;;;31.37;36.89;98983.94;5046100;28;20040;-74
2023/07/18 10:31:41;;;;;;;2.95;1.40;;;;;;;30.49;38.13;98971.41;5035053;28;20033;-73
2023/07/18 10:34:09;;;;;;;2.38;1.17;;;;;;;30.29;39.60;98933.88;5032789;28;20390;-73
2023/07/18 10:36:36;;;;;;;5.63;1.53;;;;;;;30.14;39.54;98905.28;5032938;28;20045;-74
2023/07/18 10:39:12;;;;;;;2.63;1.23;;;;;;;30.39;40.41;98904.75;5032951;28;20017;-74
2023/07/18 10:41:41;;;;;;;4.03;1.80;;;;;;;30.20;41.03;98878.00;5031863;28;20022;-73
2023/07/18 10:44:12;;;;;;;2.45;1.35;;;;;;;30.01;41.41;98855.25;5031449;28;20148;-74
2023/07/18 10:46:38;;;;;;;3.72;1.60;;;;;;;30.14;41.64;98835.50;5030795;28;20075;-73
2023/07/18 10:49:05;;;;;;;4.72;1.30;;;;;;;30.59;41.19;98803.50;5031569;28;20022;-73
2023/07/18 10:51:31;;;;;;;4.53;1.65;;;;;;;31.48;40.19;98783.06;5046387;28;20017;-74
2023/07/18 10:53:58;;;;;;;3.55;1.30;;;;;;;32.50;40.00;98770.31;5041060;28;20029;-73
2023/07/18 10:56:23;;;;;;;6.93;1.60;;;;;;;35.28;36.79;98784.78;5034184;28;20051;-73
2023/07/18 10:58:51;;;;;;;3.88;1.50;;;;;;;37.89;32.76;98798.81;5048522;28;20430;-74
2023/07/18 11:01:17;;;;;;;2.03;1.20;;;;;;;40.01;31.69;98829.47;5031990;28;20021;-73
2023/07/18 11:03:45;;;;;;;4.15;1.77;;;;;;;39.68;30.36;98851.19;5032819;28;20032;-74
2023/07/18 11:06:11;;;;;;;5.53;1.30;;;;;;;39.27;30.77;98854.19;5038866;28;20061;-73
2023/07/18 11:08:37;;;;;;;3.25;1.48;;;;;;;38.58;32.03;98888.78;5054859;28;20044;-73
2023/07/18 11:11:04;;;;;;;7.15;1.90;;;;;;;37.54;32.14;98935.50;5051742;28;20026;-74
2023/07/18 11:13:31;;;;;;;2.72;1.50;;;;;;;35.38;33.79;98971.88;5033115;28;20499;-74
2023/07/18 11:16:01;;;;;;;5.75;1.83;;;;;;;35.07;34.59;98989.56;5029411;28;20029;-74
2023/07/18 11:18:32;;;;;;;3.35;1.58;;;;;;;33.18;36.37;98989.16;5031798;28;20026;-73
2023/07/18 11:21:01;;;;;;;4.70;1.60;;;;;;;30.93;39.11;98977.72;5028384;28;20403;-73
2023/07/18 11:23:27;;;;;;;4.95;1.88;;;;;;;29.99;40.84;98963.56;5039868;28;20026;-73
2023/07/18 11:25:53;;;;;;;5.35;1.60;;;;;;;29.25;42.23;98906.69;5043100;28;20052;-73
2023/07/18 11:28:18;;;;;;;4.07;1.45;;;;;;;28.37;44.50;98993.69;5032042;28;20554;-72
2023/07/18 11:30:44;;;;;;;4.47;1.67;;;;;;;28.87;44.95;99023.34;5031772;28;20033;-73
2023/07/18 11:33:13;;;;;;;3.75;1.77;;;;;;;29.14;45.41;99014.03;5030798;28;20108;-73
2023/07/18 11:35:47;;;;;;;4.55;1.63;;;;;;;29.05;45.49;99003.66;5025813;28;20029;-73
2023/07/18 11:38:17;;;;;;;2.88;1.60;;;;;;;28.93;45.01;98997.03;5042743;28;20052;-73
2023/07/18 11:40:42;;;;;;;6.75;1.73;;;;;;;28.38;45.82;98967.53;5028696;28;20037;-73
2023/07/18 11:43:16;;;;;;;10.57;1.63;;;;;;;28.39;46.89;98958.84;5033133;28;20113;-73
2023/07/18 11:45:43;;;;;;;5.47;1.40;;;;;;;28.50;47.09;99003.16;5030671;28;20095;-73
2023/07/18 11:48:09;;;;;;;3.80;1.83;;;;;;;28.35;47.66;98996.81;5031097;28;20021;-73
2023/07/18 11:50:34;;;;;;;7.30;1.63;;;;;;;28.30;47.55;98963.53;5031577;28;20609;-73
2023/07/18 11:53:03;;;;;;;5.00;1.70;;;;;;;28.38;49.13;98953.63;5031745;28;20364;-73
2023/07/18 11:55:30;;;;;;;2.28;1.63;;;;;;;28.06;48.36;98921.28;5030901;28;20132;-73
2023/07/18 11:57:56;;;;;;;8.65;1.80;;;;;;;28.24;47.74;98923.06;5031193;28;20039;-73
2023/07/18 12:00:21;;;;;;;4.80;1.67;;;;;;;28.47;47.51;98914.72;5029860;28;20030;-73
2023/07/18 12:02:48;;;;;;;4.70;1.90;;;;;;;28.63;47.33;98885.31;5040376;28;21737;-73
2023/07/18 12:05:14;;;;;;;5.13;1.60;;;;;;;28.94;46.53;98902.00;5030261;28;20040;-73
2023/07/18 12:07:39;;;;;;;7.07;1.85;;;;;;;29.71;45.52;98888.56;5051074;28;20025;-73
2023/07/18 12:10:07;;;;;;;5.22;1.70;;;;;;;31.18;43.80;98878.16;5032131;28;20429;-74
2023/07/18 12:12:41;;;;;;;2.95;1.60;;;;;;;31.62;42.77;98845.97;5058760;28;20410;-73
2023/07/18 12:15:08;;;;;;;5.35;1.77;;;;;;;32.60;41.13;98839.88;5033378;28;20129;-74
2023/07/18 12:17:33;;;;;;;2.83;1.67;;;;;;;32.42;41.38;98821.63;5017901;28;20081;-73
2023/07/18 12:19:58;;;;;;;2.70;1.38;;;;;;;32.44;41.14;98792.09;5026583;28;20025;-73
2023/07/18 12:22:24;;;;;;;3.55;2.08;;;;;;;32.48;40.79;98779.03;5047099;28;20063;-74
2023/07/18 12:24:50;;;;;;;9.30;1.70;;;;;;;31.99;41.73;98778.13;5031765;28;20096;-73
2023/07/18 12:27:15;;;;;;;5.47;1.73;;;;;;;32.22;42.90;98778.53;5042013;28;20021;-73
2023/07/18 12:29:42;;;;;;;4.00;2.10;;;;;;;32.90;41.81;98766.75;5030250;28;20138;-73
2023/07/18 12:32:09;;;;;;;4.80;1.70;;;;;;;32.82;42.28;98759.31;5029523;28;20037;-73
2023/07/18 12:34:37;;;;;;;8.63;1.92;;;;;;;33.46;40.98;98758.47;5029597;28;20479;-74
2023/07/18 12:37:02;;;;;;;5.68;2.00;;;;;;;33.31;40.71;98756.41;5028321;28;21859;-75
2023/07/18 12:39:27;;;;;;;3.88;1.95;;;;;;;34.41;39.78;98743.78;5030705;28;20025;-73